sensor_id;sensor_type;location;lat;lon;timestamp;temperature;humidity
52555;DHT22;38455;52.710;6.502;2024-03-22T00:00:41;9.90;99.90
52555;DHT22;38455;52.710;6.502;2024-03-22T00:03:07;9.90;99.90
52555;DHT22;38455;52.710;6.502;2024-03-22T00:05:33;9.90;99.90
52555;DHT22;38455;52.710;6.502;2024-03-22T00:07:58;10.00;99.90
52555;DHT22;38455;52.710;6.502;2024-03-22T00:10:24;10.00;99.90
52555;DHT22;38455;52.710;6.502;2024-03-22T00:12:50;10.00;99.90
52555;DHT22;38455;52.710;6.502;2024-03-22T00:15:15;10.00;99.90
52555;DHT22;38455;52.710;6.502;2024-03-22T00:17:44;10.00;99.90
52555;DHT22;38455;52.710;6.502;2024-03-22T00:20:10;10.00;99.90
52555;DHT22;38455;52.710;6.502;2024-03-22T00:22:36;10.00;99.90
52555;DHT22;38455;52.710;6.502;2024-03-22T00:25:01;10.00;99.90
52555;DHT22;38455;52.710;6.502;2024-03-22T00:27:27;10.00;99.90
52555;DHT22;38455;52.710;6.502;2024-03-22T00:29:53;10.00;99.90
52555;DHT22;38455;52.710;6.502;2024-03-22T00:32:19;10.00;99.90
52555;DHT22;38455;52.710;6.502;2024-03-22T00:34:44;10.00;99.90
52555;DHT22;38455;52.710;6.502;2024-03-22T00:37:10;10.10;99.90
52555;DHT22;38455;52.710;6.502;2024-03-22T00:39:36;10.10;99.90
52555;DHT22;38455;52.710;6.502;2024-03-22T00:42:02;10.10;99.90
52555;DHT22;38455;52.710;6.502;2024-03-22T00:44:27;10.10;99.90
52555;DHT22;38455;52.710;6.502;2024-03-22T00:46:53;10.10;99.90
52555;DHT22;38455;52.710;6.502;2024-03-22T00:49:19;10.20;99.90
52555;DHT22;38455;52.710;6.502;2024-03-22T00:51:44;10.10;99.90
52555;DHT22;38455;52.710;6.502;2024-03-22T00:54:10;10.10;99.90
52555;DHT22;38455;52.710;6.502;2024-03-22T00:56:38;10.20;99.90
52555;DHT22;38455;52.710;6.502;2024-03-22T00:59:04;10.20;99.90
52555;DHT22;38455;52.710;6.502;2024-03-22T01:01:30;10.20;99.90
52555;DHT22;38455;52.710;6.502;2024-03-22T01:03:55;10.20;99.90
52555;DHT22;38455;52.710;6.502;2024-03-22T01:06:21;10.20;99.90
52555;DHT22;38455;52.710;6.502;2024-03-22T01:08:50;10.20;99.90
52555;DHT22;38455;52.710;6.502;2024-03-22T01:11:17;10.30;99.90
52555;DHT22;38455;52.710;6.502;2024-03-22T01:13:43;10.30;99.90
52555;DHT22;38455;52.710;6.502;2024-03-22T01:16:09;10.30;99.90
52555;DHT22;38455;52.710;6.502;2024-03-22T01:18:35;10.30;99.90
52555;DHT22;38455;52.710;6.502;2024-03-22T01:21:01;10.30;99.90
52555;DHT22;38455;52.710;6.502;2024-03-22T01:23:27;10.30;99.90
52555;DHT22;38455;52.710;6.502;2024-03-22T01:25:53;10.30;99.90
52555;DHT22;38455;52.710;6.502;2024-03-22T01:28:18;10.40;99.90
52555;DHT22;38455;52.710;6.502;2024-03-22T01:30:44;10.30;99.90
52555;DHT22;38455;52.710;6.502;2024-03-22T01:33:09;10.30;99.90
52555;DHT22;38455;52.710;6.502;2024-03-22T01:35:35;10.40;99.90
52555;DHT22;38455;52.710;6.502;2024-03-22T01:38:01;10.40;99.90
52555;DHT22;38455;52.710;6.502;2024-03-22T01:40:26;10.40;99.90
52555;DHT22;38455;52.710;6.502;2024-03-22T01:42:59;10.40;99.90
52555;DHT22;38455;52.710;6.502;2024-03-22T01:45:25;10.40;99.90
52555;DHT22;38455;52.710;6.502;2024-03-22T01:47:52;10.40;99.90
52555;DHT22;38455;52.710;6.502;2024-03-22T01:50:20;10.40;99.90
52555;DHT22;38455;52.710;6.502;2024-03-22T01:52:46;10.40;99.90
52555;DHT22;38455;52.710;6.502;2024-03-22T01:55:13;10.50;99.90
52555;DHT22;38455;52.710;6.502;2024-03-22T01:57:39;10.40;99.90
52555;DHT22;38455;52.710;6.502;2024-03-22T02:00:06;10.50;99.90
52555;DHT22;38455;52.710;6.502;2024-03-22T02:02:31;10.50;99.90
52555;DHT22;38455;52.710;6.502;2024-03-22T02:04:57;10.50;99.90
52555;DHT22;38455;52.710;6.502;2024-03-22T02:07:23;10.50;99.90
52555;DHT22;38455;52.710;6.502;2024-03-22T02:09:49;10.50;99.90
52555;DHT22;38455;52.710;6.502;2024-03-22T02:12:14;10.50;99.90
52555;DHT22;38455;52.710;6.502;2024-03-22T02:14:41;10.50;99.90
52555;DHT22;38455;52.710;6.502;2024-03-22T02:17:07;10.50;99.90
52555;DHT22;38455;52.710;6.502;2024-03-22T02:19:32;10.50;99.90
52555;DHT22;38455;52.710;6.502;2024-03-22T02:21:58;10.60;99.90
52555;DHT22;38455;52.710;6.502;2024-03-22T02:24:23;10.60;99.90
52555;DHT22;38455;52.710;6.502;2024-03-22T02:26:49;10.60;99.90
52555;DHT22;38455;52.710;6.502;2024-03-22T02:29:15;10.60;99.90
52555;DHT22;38455;52.710;6.502;2024-03-22T02:31:40;10.60;99.90
52555;DHT22;38455;52.710;6.502;2024-03-22T02:34:06;10.60;99.90
52555;DHT22;38455;52.710;6.502;2024-03-22T02:36:32;10.70;99.90
52555;DHT22;38455;52.710;6.502;2024-03-22T02:38:57;10.70;99.90
52555;DHT22;38455;52.710;6.502;2024-03-22T02:41:23;10.70;99.90
52555;DHT22;38455;52.710;6.502;2024-03-22T02:43:49;10.70;99.90
52555;DHT22;38455;52.710;6.502;2024-03-22T02:46:14;10.70;99.90
52555;DHT22;38455;52.710;6.502;2024-03-22T02:48:40;10.70;99.90
52555;DHT22;38455;52.710;6.502;2024-03-22T02:51:06;10.70;99.90
52555;DHT22;38455;52.710;6.502;2024-03-22T02:53:31;10.80;99.90
52555;DHT22;38455;52.710;6.502;2024-03-22T02:56:00;10.70;99.90
52555;DHT22;38455;52.710;6.502;2024-03-22T02:58:26;10.80;99.90
52555;DHT22;38455;52.710;6.502;2024-03-22T03:00:52;10.80;99.90
52555;DHT22;38455;52.710;6.502;2024-03-22T03:03:17;10.90;99.90
52555;DHT22;38455;52.710;6.502;2024-03-22T03:05:43;10.80;99.90
52555;DHT22;38455;52.710;6.502;2024-03-22T03:08:09;10.80;99.90
52555;DHT22;38455;52.710;6.502;2024-03-22T03:10:35;10.80;99.90
52555;DHT22;38455;52.710;6.502;2024-03-22T03:13:01;10.90;99.90
52555;DHT22;38455;52.710;6.502;2024-03-22T03:15:27;10.90;99.90
52555;DHT22;38455;52.710;6.502;2024-03-22T03:17:52;10.90;99.90
52555;DHT22;38455;52.710;6.502;2024-03-22T03:20:18;10.90;99.90
52555;DHT22;38455;52.710;6.502;2024-03-22T03:22:44;10.90;99.90
52555;DHT22;38455;52.710;6.502;2024-03-22T03:25:09;10.90;99.90
52555;DHT22;38455;52.710;6.502;2024-03-22T03:27:35;10.90;99.90
52555;DHT22;38455;52.710;6.502;2024-03-22T03:30:01;10.90;99.90
52555;DHT22;38455;52.710;6.502;2024-03-22T03:32:27;10.90;99.90
52555;DHT22;38455;52.710;6.502;2024-03-22T03:34:53;10.90;99.90
52555;DHT22;38455;52.710;6.502;2024-03-22T03:37:19;10.90;99.90
52555;DHT22;38455;52.710;6.502;2024-03-22T03:39:45;10.90;99.90
52555;DHT22;38455;52.710;6.502;2024-03-22T03:42:10;10.90;99.90
52555;DHT22;38455;52.710;6.502;2024-03-22T03:44:36;10.90;99.90
52555;DHT22;38455;52.710;6.502;2024-03-22T03:47:02;10.90;99.90
52555;DHT22;38455;52.710;6.502;2024-03-22T03:49:28;10.90;99.90
52555;DHT22;38455;52.710;6.502;2024-03-22T03:51:53;10.90;99.90
52555;DHT22;38455;52.710;6.502;2024-03-22T03:54:19;10.90;99.90
52555;DHT22;38455;52.710;6.502;2024-03-22T03:56:45;10.90;99.90
52555;DHT22;38455;52.710;6.502;2024-03-22T03:59:10;11.00;99.90
52555;DHT22;38455;52.710;6.502;2024-03-22T04:01:36;10.90;99.90
52555;DHT22;38455;52.710;6.502;2024-03-22T04:04:03;10.90;99.90
52555;DHT22;38455;52.710;6.502;2024-03-22T04:06:28;10.90;99.90
52555;DHT22;38455;52.710;6.502;2024-03-22T04:08:54;10.90;99.90
52555;DHT22;38455;52.710;6.502;2024-03-22T04:11:20;10.90;99.90
52555;DHT22;38455;52.710;6.502;2024-03-22T04:13:45;10.90;99.90
52555;DHT22;38455;52.710;6.502;2024-03-22T04:16:13;10.90;99.90
52555;DHT22;38455;52.710;6.502;2024-03-22T04:18:38;10.90;99.90
52555;DHT22;38455;52.710;6.502;2024-03-22T04:21:04;10.90;99.90
52555;DHT22;38455;52.710;6.502;2024-03-22T04:23:30;10.90;99.90
52555;DHT22;38455;52.710;6.502;2024-03-22T04:25:58;10.90;99.90
52555;DHT22;38455;52.710;6.502;2024-03-22T04:28:27;10.90;99.90
52555;DHT22;38455;52.710;6.502;2024-03-22T04:31:03;10.90;99.90
52555;DHT22;38455;52.710;6.502;2024-03-22T04:33:29;10.90;99.90
52555;DHT22;38455;52.710;6.502;2024-03-22T04:35:55;10.90;99.90
52555;DHT22;38455;52.710;6.502;2024-03-22T04:38:25;10.90;99.90
52555;DHT22;38455;52.710;6.502;2024-03-22T04:40:51;11.00;99.90
52555;DHT22;38455;52.710;6.502;2024-03-22T04:43:17;10.90;99.90
52555;DHT22;38455;52.710;6.502;2024-03-22T04:45:43;10.90;99.90
52555;DHT22;38455;52.710;6.502;2024-03-22T04:48:09;11.00;99.90
52555;DHT22;38455;52.710;6.502;2024-03-22T04:50:35;11.00;99.90
52555;DHT22;38455;52.710;6.502;2024-03-22T04:53:01;11.00;99.90
52555;DHT22;38455;52.710;6.502;2024-03-22T04:55:27;11.00;99.90
52555;DHT22;38455;52.710;6.502;2024-03-22T04:57:53;11.00;99.90
52555;DHT22;38455;52.710;6.502;2024-03-22T05:00:19;11.00;99.90
52555;DHT22;38455;52.710;6.502;2024-03-22T05:02:44;11.00;99.90
52555;DHT22;38455;52.710;6.502;2024-03-22T05:05:11;10.90;99.90
52555;DHT22;38455;52.710;6.502;2024-03-22T05:07:36;11.00;99.90
52555;DHT22;38455;52.710;6.502;2024-03-22T05:10:02;10.90;99.90
52555;DHT22;38455;52.710;6.502;2024-03-22T05:12:28;11.00;99.90
52555;DHT22;38455;52.710;6.502;2024-03-22T05:14:55;10.90;99.90
52555;DHT22;38455;52.710;6.502;2024-03-22T05:17:20;10.90;99.90
52555;DHT22;38455;52.710;6.502;2024-03-22T05:19:46;10.90;99.90
52555;DHT22;38455;52.710;6.502;2024-03-22T05:22:12;10.90;99.90
52555;DHT22;38455;52.710;6.502;2024-03-22T05:24:38;10.90;99.90
52555;DHT22;38455;52.710;6.502;2024-03-22T05:27:03;10.90;99.90
52555;DHT22;38455;52.710;6.502;2024-03-22T05:29:29;10.90;99.90
52555;DHT22;38455;52.710;6.502;2024-03-22T05:31:55;10.90;99.90
52555;DHT22;38455;52.710;6.502;2024-03-22T05:34:20;10.90;99.90
52555;DHT22;38455;52.710;6.502;2024-03-22T05:36:46;10.90;99.90
52555;DHT22;38455;52.710;6.502;2024-03-22T05:39:12;10.90;99.90
52555;DHT22;38455;52.710;6.502;2024-03-22T05:41:38;10.80;99.90
52555;DHT22;38455;52.710;6.502;2024-03-22T05:44:04;10.90;99.90
52555;DHT22;38455;52.710;6.502;2024-03-22T05:46:30;10.80;99.90
52555;DHT22;38455;52.710;6.502;2024-03-22T05:48:57;10.80;99.90
52555;DHT22;38455;52.710;6.502;2024-03-22T05:51:24;10.80;99.90
52555;DHT22;38455;52.710;6.502;2024-03-22T05:53:50;10.80;99.90
52555;DHT22;38455;52.710;6.502;2024-03-22T05:56:16;10.80;99.90
52555;DHT22;38455;52.710;6.502;2024-03-22T05:58:41;10.70;99.90
52555;DHT22;38455;52.710;6.502;2024-03-22T06:01:07;10.70;99.90
52555;DHT22;38455;52.710;6.502;2024-03-22T06:03:33;10.70;99.90
52555;DHT22;38455;52.710;6.502;2024-03-22T06:06:00;10.70;99.90
52555;DHT22;38455;52.710;6.502;2024-03-22T06:08:29;10.70;99.90
52555;DHT22;38455;52.710;6.502;2024-03-22T06:10:57;10.60;99.90
52555;DHT22;38455;52.710;6.502;2024-03-22T06:13:23;10.70;99.90
52555;DHT22;38455;52.710;6.502;2024-03-22T06:15:49;10.70;99.90
52555;DHT22;38455;52.710;6.502;2024-03-22T06:18:15;10.60;99.90
52555;DHT22;38455;52.710;6.502;2024-03-22T06:20:41;10.70;99.90
52555;DHT22;38455;52.710;6.502;2024-03-22T06:23:10;10.70;99.90
52555;DHT22;38455;52.710;6.502;2024-03-22T06:25:36;10.70;99.90
52555;DHT22;38455;52.710;6.502;2024-03-22T06:28:01;10.70;99.90
52555;DHT22;38455;52.710;6.502;2024-03-22T06:30:27;10.70;99.90
52555;DHT22;38455;52.710;6.502;2024-03-22T06:32:53;10.70;99.90
52555;DHT22;38455;52.710;6.502;2024-03-22T06:35:20;10.70;99.90
52555;DHT22;38455;52.710;6.502;2024-03-22T06:37:46;10.70;99.90
52555;DHT22;38455;52.710;6.502;2024-03-22T06:40:12;10.70;99.90
52555;DHT22;38455;52.710;6.502;2024-03-22T06:42:37;10.70;99.90
52555;DHT22;38455;52.710;6.502;2024-03-22T06:45:03;10.70;99.90
52555;DHT22;38455;52.710;6.502;2024-03-22T06:47:29;10.70;99.90
52555;DHT22;38455;52.710;6.502;2024-03-22T06:49:54;10.70;99.90
52555;DHT22;38455;52.710;6.502;2024-03-22T06:52:20;10.70;99.90
52555;DHT22;38455;52.710;6.502;2024-03-22T06:54:46;10.80;99.90
52555;DHT22;38455;52.710;6.502;2024-03-22T06:57:12;10.70;99.90
52555;DHT22;38455;52.710;6.502;2024-03-22T06:59:38;10.70;99.90
52555;DHT22;38455;52.710;6.502;2024-03-22T07:02:04;10.70;99.90
52555;DHT22;38455;52.710;6.502;2024-03-22T07:04:29;10.70;99.90
52555;DHT22;38455;52.710;6.502;2024-03-22T07:06:55;10.80;99.90
52555;DHT22;38455;52.710;6.502;2024-03-22T07:09:20;10.80;99.90
52555;DHT22;38455;52.710;6.502;2024-03-22T07:11:46;10.80;99.90
52555;DHT22;38455;52.710;6.502;2024-03-22T07:14:12;10.80;99.90
52555;DHT22;38455;52.710;6.502;2024-03-22T07:16:37;10.80;99.90
52555;DHT22;38455;52.710;6.502;2024-03-22T07:19:03;10.80;99.90
52555;DHT22;38455;52.710;6.502;2024-03-22T07:21:29;10.90;99.90
52555;DHT22;38455;52.710;6.502;2024-03-22T07:23:56;10.90;99.90
52555;DHT22;38455;52.710;6.502;2024-03-22T07:26:22;10.80;99.90
52555;DHT22;38455;52.710;6.502;2024-03-22T07:28:47;10.90;99.90
52555;DHT22;38455;52.710;6.502;2024-03-22T07:31:13;10.90;99.90
52555;DHT22;38455;52.710;6.502;2024-03-22T07:33:39;10.90;99.90
52555;DHT22;38455;52.710;6.502;2024-03-22T07:36:06;10.90;99.90
52555;DHT22;38455;52.710;6.502;2024-03-22T07:38:32;11.00;99.90
52555;DHT22;38455;52.710;6.502;2024-03-22T07:40:57;10.90;99.90
52555;DHT22;38455;52.710;6.502;2024-03-22T07:43:23;11.00;99.90
52555;DHT22;38455;52.710;6.502;2024-03-22T07:45:49;11.00;99.90
52555;DHT22;38455;52.710;6.502;2024-03-22T07:48:15;11.00;99.90
52555;DHT22;38455;52.710;6.502;2024-03-22T07:50:42;11.00;99.90
52555;DHT22;38455;52.710;6.502;2024-03-22T07:53:08;11.10;99.90
52555;DHT22;38455;52.710;6.502;2024-03-22T07:55:34;11.10;99.90
52555;DHT22;38455;52.710;6.502;2024-03-22T07:58:01;11.10;99.90
52555;DHT22;38455;52.710;6.502;2024-03-22T08:00:26;11.00;99.90
52555;DHT22;38455;52.710;6.502;2024-03-22T08:02:52;11.00;99.90
52555;DHT22;38455;52.710;6.502;2024-03-22T08:05:18;11.00;99.90
52555;DHT22;38455;52.710;6.502;2024-03-22T08:07:45;11.10;99.90
52555;DHT22;38455;52.710;6.502;2024-03-22T08:10:10;11.20;99.90
52555;DHT22;38455;52.710;6.502;2024-03-22T08:12:36;11.20;99.90
52555;DHT22;38455;52.710;6.502;2024-03-22T08:15:02;11.20;99.90
52555;DHT22;38455;52.710;6.502;2024-03-22T08:17:28;11.30;99.90
52555;DHT22;38455;52.710;6.502;2024-03-22T08:19:54;11.30;99.90
52555;DHT22;38455;52.710;6.502;2024-03-22T08:22:19;11.30;99.90
52555;DHT22;38455;52.710;6.502;2024-03-22T08:24:45;11.30;99.90
52555;DHT22;38455;52.710;6.502;2024-03-22T08:27:11;11.30;99.90
52555;DHT22;38455;52.710;6.502;2024-03-22T08:29:38;11.20;99.90
52555;DHT22;38455;52.710;6.502;2024-03-22T08:32:04;11.20;99.90
52555;DHT22;38455;52.710;6.502;2024-03-22T08:34:32;11.20;99.90
52555;DHT22;38455;52.710;6.502;2024-03-22T08:36:58;11.20;99.90
52555;DHT22;38455;52.710;6.502;2024-03-22T08:39:24;11.20;99.90
52555;DHT22;38455;52.710;6.502;2024-03-22T08:41:51;11.10;99.90
52555;DHT22;38455;52.710;6.502;2024-03-22T08:44:16;11.20;99.90
52555;DHT22;38455;52.710;6.502;2024-03-22T08:46:42;11.20;99.90
52555;DHT22;38455;52.710;6.502;2024-03-22T08:49:08;11.10;99.90
52555;DHT22;38455;52.710;6.502;2024-03-22T08:51:33;11.10;99.90
52555;DHT22;38455;52.710;6.502;2024-03-22T08:53:59;11.10;99.90
52555;DHT22;38455;52.710;6.502;2024-03-22T08:56:26;11.10;99.90
52555;DHT22;38455;52.710;6.502;2024-03-22T08:58:52;11.10;99.90
52555;DHT22;38455;52.710;6.502;2024-03-22T09:01:17;11.00;99.90
52555;DHT22;38455;52.710;6.502;2024-03-22T09:03:43;11.00;99.90
52555;DHT22;38455;52.710;6.502;2024-03-22T09:06:14;11.10;99.90
52555;DHT22;38455;52.710;6.502;2024-03-22T09:08:40;11.00;99.90
52555;DHT22;38455;52.710;6.502;2024-03-22T09:11:06;11.00;99.90
52555;DHT22;38455;52.710;6.502;2024-03-22T09:13:31;10.90;99.90
52555;DHT22;38455;52.710;6.502;2024-03-22T09:16:00;10.90;99.90
52555;DHT22;38455;52.710;6.502;2024-03-22T09:18:26;10.90;99.90
52555;DHT22;38455;52.710;6.502;2024-03-22T09:20:55;10.90;99.90
52555;DHT22;38455;52.710;6.502;2024-03-22T09:23:21;10.90;99.90
52555;DHT22;38455;52.710;6.502;2024-03-22T09:25:47;10.80;99.90
52555;DHT22;38455;52.710;6.502;2024-03-22T09:28:14;10.90;99.90
52555;DHT22;38455;52.710;6.502;2024-03-22T09:30:40;10.80;99.90
52555;DHT22;38455;52.710;6.502;2024-03-22T09:33:06;10.90;99.90
52555;DHT22;38455;52.710;6.502;2024-03-22T09:35:36;10.90;99.90
52555;DHT22;38455;52.710;6.502;2024-03-22T09:38:02;10.90;99.90
52555;DHT22;38455;52.710;6.502;2024-03-22T09:40:28;10.90;99.90
52555;DHT22;38455;52.710;6.502;2024-03-22T09:42:59;10.90;99.90
52555;DHT22;38455;52.710;6.502;2024-03-22T09:45:28;10.90;99.90
52555;DHT22;38455;52.710;6.502;2024-03-22T09:47:54;10.90;99.90
52555;DHT22;38455;52.710;6.502;2024-03-22T09:50:21;10.90;99.90
52555;DHT22;38455;52.710;6.502;2024-03-22T09:52:47;11.00;99.90
52555;DHT22;38455;52.710;6.502;2024-03-22T09:55:14;11.00;99.90
52555;DHT22;38455;52.710;6.502;2024-03-22T09:57:40;11.00;99.90
52555;DHT22;38455;52.710;6.502;2024-03-22T10:00:08;11.00;99.90
52555;DHT22;38455;52.710;6.502;2024-03-22T10:02:34;11.00;99.90
52555;DHT22;38455;52.710;6.502;2024-03-22T10:05:00;11.00;99.90
52555;DHT22;38455;52.710;6.502;2024-03-22T10:07:28;11.00;99.90
52555;DHT22;38455;52.710;6.502;2024-03-22T10:10:00;11.00;99.90
52555;DHT22;38455;52.710;6.502;2024-03-22T10:12:26;11.00;99.90
52555;DHT22;38455;52.710;6.502;2024-03-22T10:14:55;11.00;99.90
52555;DHT22;38455;52.710;6.502;2024-03-22T10:17:21;11.00;99.90
52555;DHT22;38455;52.710;6.502;2024-03-22T10:19:50;11.00;99.90
52555;DHT22;38455;52.710;6.502;2024-03-22T10:22:17;11.00;99.90
52555;DHT22;38455;52.710;6.502;2024-03-22T10:24:43;11.00;99.90
52555;DHT22;38455;52.710;6.502;2024-03-22T10:27:09;11.00;99.90
52555;DHT22;38455;52.710;6.502;2024-03-22T10:29:36;10.90;99.90
52555;DHT22;38455;52.710;6.502;2024-03-22T10:32:02;11.00;99.90
52555;DHT22;38455;52.710;6.502;2024-03-22T10:34:28;10.90;99.90
52555;DHT22;38455;52.710;6.502;2024-03-22T10:36:55;10.90;99.90
52555;DHT22;38455;52.710;6.502;2024-03-22T10:39:23;10.90;99.90
52555;DHT22;38455;52.710;6.502;2024-03-22T10:41:50;11.00;99.90
52555;DHT22;38455;52.710;6.502;2024-03-22T10:44:16;11.00;99.90
52555;DHT22;38455;52.710;6.502;2024-03-22T10:46:48;11.00;99.90
52555;DHT22;38455;52.710;6.502;2024-03-22T10:49:16;11.10;99.90
52555;DHT22;38455;52.710;6.502;2024-03-22T10:52:01;11.10;99.90
52555;DHT22;38455;52.710;6.502;2024-03-22T10:54:32;11.20;99.90
52555;DHT22;38455;52.710;6.502;2024-03-22T10:56:59;11.20;99.90
52555;DHT22;38455;52.710;6.502;2024-03-22T10:59:25;11.30;99.90
52555;DHT22;38455;52.710;6.502;2024-03-22T11:01:51;11.30;99.90
52555;DHT22;38455;52.710;6.502;2024-03-22T11:04:18;11.40;99.90
52555;DHT22;38455;52.710;6.502;2024-03-22T11:06:48;11.40;99.90
52555;DHT22;38455;52.710;6.502;2024-03-22T11:09:26;11.50;99.90
52555;DHT22;38455;52.710;6.502;2024-03-22T11:11:53;11.50;99.90
52555;DHT22;38455;52.710;6.502;2024-03-22T11:14:20;11.50;99.90
52555;DHT22;38455;52.710;6.502;2024-03-22T11:16:47;11.60;99.90
52555;DHT22;38455;52.710;6.502;2024-03-22T11:19:13;11.60;99.90
52555;DHT22;38455;52.710;6.502;2024-03-22T11:21:39;11.60;99.90
52555;DHT22;38455;52.710;6.502;2024-03-22T11:24:05;11.50;99.90
52555;DHT22;38455;52.710;6.502;2024-03-22T11:26:34;11.50;99.90
52555;DHT22;38455;52.710;6.502;2024-03-22T11:29:00;11.50;99.90
52555;DHT22;38455;52.710;6.502;2024-03-22T11:31:26;11.40;99.90
52555;DHT22;38455;52.710;6.502;2024-03-22T11:33:55;11.30;99.90
52555;DHT22;38455;52.710;6.502;2024-03-22T11:36:21;11.40;99.90
52555;DHT22;38455;52.710;6.502;2024-03-22T11:38:47;11.40;99.90
52555;DHT22;38455;52.710;6.502;2024-03-22T11:41:24;11.30;99.90
52555;DHT22;38455;52.710;6.502;2024-03-22T11:43:52;11.40;99.90
52555;DHT22;38455;52.710;6.502;2024-03-22T11:46:18;11.40;99.90
52555;DHT22;38455;52.710;6.502;2024-03-22T11:48:44;11.50;99.90
52555;DHT22;38455;52.710;6.502;2024-03-22T11:51:10;11.60;99.90
52555;DHT22;38455;52.710;6.502;2024-03-22T11:53:36;11.60;99.90
52555;DHT22;38455;52.710;6.502;2024-03-22T11:56:03;11.70;99.90
52555;DHT22;38455;52.710;6.502;2024-03-22T11:58:29;11.70;99.90
52555;DHT22;38455;52.710;6.502;2024-03-22T12:00:58;11.80;99.90
52555;DHT22;38455;52.710;6.502;2024-03-22T12:03:25;11.80;99.90
52555;DHT22;38455;52.710;6.502;2024-03-22T12:05:54;11.90;99.90
52555;DHT22;38455;52.710;6.502;2024-03-22T12:08:20;11.90;99.90
52555;DHT22;38455;52.710;6.502;2024-03-22T12:10:45;11.90;99.90
52555;DHT22;38455;52.710;6.502;2024-03-22T12:13:11;11.90;99.90
52555;DHT22;38455;52.710;6.502;2024-03-22T12:15:37;11.90;99.90
52555;DHT22;38455;52.710;6.502;2024-03-22T12:18:03;12.00;99.90
52555;DHT22;38455;52.710;6.502;2024-03-22T12:20:28;11.90;99.90
52555;DHT22;38455;52.710;6.502;2024-03-22T12:22:55;11.90;99.90
52555;DHT22;38455;52.710;6.502;2024-03-22T12:25:21;12.00;99.90
52555;DHT22;38455;52.710;6.502;2024-03-22T12:27:46;12.00;99.90
52555;DHT22;38455;52.710;6.502;2024-03-22T12:30:12;12.00;99.90
52555;DHT22;38455;52.710;6.502;2024-03-22T12:32:38;12.10;99.90
52555;DHT22;38455;52.710;6.502;2024-03-22T12:35:05;11.90;99.90
52555;DHT22;38455;52.710;6.502;2024-03-22T12:37:30;11.90;99.90
52555;DHT22;38455;52.710;6.502;2024-03-22T12:39:56;11.90;99.90
52555;DHT22;38455;52.710;6.502;2024-03-22T12:42:22;12.00;99.90
52555;DHT22;38455;52.710;6.502;2024-03-22T12:44:48;12.10;99.90
52555;DHT22;38455;52.710;6.502;2024-03-22T12:47:15;12.10;99.90
52555;DHT22;38455;52.710;6.502;2024-03-22T12:49:40;12.20;99.90
52555;DHT22;38455;52.710;6.502;2024-03-22T12:52:07;12.20;99.90
52555;DHT22;38455;52.710;6.502;2024-03-22T12:54:35;12.20;99.90
52555;DHT22;38455;52.710;6.502;2024-03-22T12:57:01;12.20;99.90
52555;DHT22;38455;52.710;6.502;2024-03-22T12:59:26;12.20;99.90
52555;DHT22;38455;52.710;6.502;2024-03-22T13:01:52;11.90;99.90
52555;DHT22;38455;52.710;6.502;2024-03-22T13:04:19;11.80;99.90
52555;DHT22;38455;52.710;6.502;2024-03-22T13:06:44;11.60;99.90
52555;DHT22;38455;52.710;6.502;2024-03-22T13:09:10;11.40;99.90
52555;DHT22;38455;52.710;6.502;2024-03-22T13:11:38;11.20;99.90
52555;DHT22;38455;52.710;6.502;2024-03-22T13:14:03;11.10;99.90
52555;DHT22;38455;52.710;6.502;2024-03-22T13:16:29;11.10;99.90
52555;DHT22;38455;52.710;6.502;2024-03-22T13:18:54;11.10;99.90
52555;DHT22;38455;52.710;6.502;2024-03-22T13:21:20;11.10;99.90
52555;DHT22;38455;52.710;6.502;2024-03-22T13:23:46;11.00;99.90
52555;DHT22;38455;52.710;6.502;2024-03-22T13:26:11;11.10;99.90
52555;DHT22;38455;52.710;6.502;2024-03-22T13:28:37;11.10;99.90
52555;DHT22;38455;52.710;6.502;2024-03-22T13:31:03;11.10;99.90
52555;DHT22;38455;52.710;6.502;2024-03-22T13:33:32;11.00;99.90
52555;DHT22;38455;52.710;6.502;2024-03-22T13:35:57;11.00;99.90
52555;DHT22;38455;52.710;6.502;2024-03-22T13:38:24;11.00;99.90
52555;DHT22;38455;52.710;6.502;2024-03-22T13:40:56;11.00;99.90
52555;DHT22;38455;52.710;6.502;2024-03-22T13:43:23;11.00;99.90
52555;DHT22;38455;52.710;6.502;2024-03-22T13:45:52;11.00;99.90
52555;DHT22;38455;52.710;6.502;2024-03-22T13:48:22;10.90;99.90
52555;DHT22;38455;52.710;6.502;2024-03-22T13:50:50;10.90;99.90
52555;DHT22;38455;52.710;6.502;2024-03-22T13:53:16;10.90;99.90
52555;DHT22;38455;52.710;6.502;2024-03-22T13:55:43;10.80;99.90
52555;DHT22;38455;52.710;6.502;2024-03-22T13:58:08;10.80;99.90
52555;DHT22;38455;52.710;6.502;2024-03-22T14:00:34;10.90;99.90
52555;DHT22;38455;52.710;6.502;2024-03-22T14:03:01;10.90;99.90
52555;DHT22;38455;52.710;6.502;2024-03-22T14:05:27;10.90;99.90
52555;DHT22;38455;52.710;6.502;2024-03-22T14:07:52;10.90;99.90
52555;DHT22;38455;52.710;6.502;2024-03-22T14:10:18;10.90;99.90
52555;DHT22;38455;52.710;6.502;2024-03-22T14:12:45;11.00;99.90
52555;DHT22;38455;52.710;6.502;2024-03-22T14:15:11;11.10;99.90
52555;DHT22;38455;52.710;6.502;2024-03-22T14:17:37;11.10;99.90
52555;DHT22;38455;52.710;6.502;2024-03-22T14:20:03;11.30;99.90
52555;DHT22;38455;52.710;6.502;2024-03-22T14:22:35;11.20;99.90
52555;DHT22;38455;52.710;6.502;2024-03-22T14:25:01;11.30;99.90
52555;DHT22;38455;52.710;6.502;2024-03-22T14:27:28;11.30;99.90
52555;DHT22;38455;52.710;6.502;2024-03-22T14:29:53;11.50;99.90
52555;DHT22;38455;52.710;6.502;2024-03-22T14:32:19;11.40;99.90
52555;DHT22;38455;52.710;6.502;2024-03-22T14:34:45;11.40;99.90
52555;DHT22;38455;52.710;6.502;2024-03-22T14:37:11;11.50;99.90
52555;DHT22;38455;52.710;6.502;2024-03-22T14:39:37;11.40;99.90
52555;DHT22;38455;52.710;6.502;2024-03-22T14:42:03;11.40;99.90
52555;DHT22;38455;52.710;6.502;2024-03-22T14:44:30;11.50;99.90
52555;DHT22;38455;52.710;6.502;2024-03-22T14:46:56;11.50;99.90
52555;DHT22;38455;52.710;6.502;2024-03-22T14:49:24;11.30;99.90
52555;DHT22;38455;52.710;6.502;2024-03-22T14:51:50;11.40;99.90
52555;DHT22;38455;52.710;6.502;2024-03-22T14:54:16;11.40;99.90
52555;DHT22;38455;52.710;6.502;2024-03-22T14:56:42;11.30;99.90
52555;DHT22;38455;52.710;6.502;2024-03-22T14:59:07;11.40;99.90
52555;DHT22;38455;52.710;6.502;2024-03-22T15:01:33;11.40;99.90
52555;DHT22;38455;52.710;6.502;2024-03-22T15:04:00;11.40;99.90
52555;DHT22;38455;52.710;6.502;2024-03-22T15:06:26;11.30;99.90
52555;DHT22;38455;52.710;6.502;2024-03-22T15:08:54;11.50;99.90
52555;DHT22;38455;52.710;6.502;2024-03-22T15:11:20;11.50;99.90
52555;DHT22;38455;52.710;6.502;2024-03-22T15:13:46;11.50;99.90
52555;DHT22;38455;52.710;6.502;2024-03-22T15:16:12;11.30;99.90
52555;DHT22;38455;52.710;6.502;2024-03-22T15:18:39;11.30;99.90
52555;DHT22;38455;52.710;6.502;2024-03-22T15:21:08;11.20;99.90
52555;DHT22;38455;52.710;6.502;2024-03-22T15:23:34;11.20;99.90